Terminal Aerodrome Forecast
Issued by NWS

Home | Current Version | Previous Version | Text Only | Print | Product List | Glossary On
Versions: 1 2 3 4 5 6 7 8 9 10 11 12 13 14 15 16 17 18 19 20 21 22 23 24 25 26
000
FTUS45 KLKN 021724
TAFELY
TAF
KELY 021724Z 0218/0318 18011KT P6SM SCT070
     FM021900 19020G35KT P6SM VCTS FEW060 BKN120CB
     FM030200 18015KT P6SM FEW080 FEW150=

USA.gov is the U.S. government's official web portal to all federal, state and local government web resources and services.